createdAt,value
2022-11-23T00:01:26.236Z,0.32
2022-11-23T00:03:59.157Z,0.25
2022-11-23T00:06:27.101Z,0.25
2022-11-23T00:08:54.990Z,6.82
2022-11-23T00:11:25.514Z,0.20
2022-11-23T00:13:54.289Z,0.30
2022-11-23T00:16:27.763Z,0.50
2022-11-23T00:18:57.688Z,0.30
2022-11-23T00:21:27.218Z,1.27
2022-11-23T00:23:55.483Z,0.30
2022-11-23T00:26:23.081Z,0.40
2022-11-23T00:28:50.691Z,0.28
2022-11-23T00:31:20.297Z,0.25
2022-11-23T00:33:53.468Z,0.28
2022-11-23T00:36:22.189Z,0.30
2022-11-23T00:38:50.641Z,0.20
2022-11-23T00:41:21.598Z,1.95
2022-11-23T00:43:49.993Z,0.20
2022-11-23T00:46:20.254Z,0.17
2022-11-23T00:48:50.033Z,0.30
2022-11-23T00:51:20.075Z,0.10
2022-11-23T00:53:47.941Z,0.10
2022-11-23T00:56:15.548Z,0.20
2022-11-23T00:58:43.587Z,0.43
2022-11-23T01:01:14.466Z,0.20
2022-11-23T01:03:48.236Z,0.20
2022-11-23T01:06:19.279Z,0.20
2022-11-23T01:08:53.176Z,0.30
2022-11-23T01:11:22.013Z,0.20
2022-11-23T01:13:49.558Z,0.20
2022-11-23T01:16:24.428Z,0.10
2022-11-23T01:18:53.904Z,0.20
2022-11-23T01:21:25.099Z,0.15
2022-11-23T01:23:52.972Z,0.40
2022-11-23T01:26:20.635Z,0.10
2022-11-23T01:28:48.597Z,0.20
2022-11-23T01:31:19.624Z,0.10
2022-11-23T01:33:47.956Z,0.20
2022-11-23T01:36:21.797Z,0.17
2022-11-23T01:38:51.313Z,0.20
2022-11-23T01:41:25.128Z,0.30
2022-11-23T01:43:53.110Z,0.20
2022-11-23T01:46:21.192Z,0.20
2022-11-23T01:49:00.536Z,0.20
2022-11-23T01:51:43.281Z,0.35
2022-11-23T01:54:26.965Z,0.30
2022-11-23T01:56:58.937Z,0.15
2022-11-23T01:59:28.731Z,0.20
2022-11-23T02:01:57.853Z,0.75
2022-11-23T02:04:32.573Z,0.20
2022-11-23T02:07:02.525Z,0.30
2022-11-23T02:09:33.776Z,0.20
2022-11-23T02:12:01.709Z,0.40
2022-11-23T02:14:29.879Z,1.02
2022-11-23T02:17:00.608Z,0.63
2022-11-23T02:20:05.381Z,0.10
2022-11-23T02:22:58.080Z,0.20
2022-11-23T02:25:46.671Z,0.28
2022-11-23T02:28:31.383Z,0.38
2022-11-23T02:30:59.629Z,0.20
2022-11-23T02:33:27.166Z,0.20
2022-11-23T02:35:57.225Z,0.17
2022-11-23T02:38:28.835Z,1.15
2022-11-23T02:40:58.626Z,0.22
2022-11-23T02:43:26.542Z,0.40
2022-11-23T02:46:03.614Z,1.45
2022-11-23T02:48:31.196Z,0.30
2022-11-23T02:50:58.875Z,0.15
2022-11-23T02:53:26.424Z,9.10
2022-11-23T02:55:55.278Z,0.17
2022-11-23T02:58:24.810Z,1.10
2022-11-23T03:00:52.588Z,0.22
2022-11-23T03:03:20.599Z,2.35
2022-11-23T03:05:48.367Z,1.45
2022-11-23T03:08:15.952Z,1.48
2022-11-23T03:10:43.591Z,0.52
2022-11-23T03:13:12.098Z,0.50
2022-11-23T03:15:41.553Z,0.43
2022-11-23T03:18:10.399Z,0.30
2022-11-23T03:20:39.697Z,0.30
2022-11-23T03:23:07.448Z,0.40
2022-11-23T03:25:43.689Z,0.40
2022-11-23T03:28:13.930Z,0.65
2022-11-23T03:30:43.550Z,1.58
2022-11-23T03:33:11.194Z,1.65
2022-11-23T03:35:38.912Z,0.45
2022-11-23T03:38:25.821Z,0.88
2022-11-23T03:40:54.406Z,18.77
2022-11-23T03:43:27.198Z,5.78
2022-11-23T03:45:54.843Z,0.28
2022-11-23T03:48:23.482Z,0.38
2022-11-23T03:50:51.589Z,29.88
2022-11-23T03:53:19.185Z,22.58
2022-11-23T03:55:47.530Z,14.05
2022-11-23T03:58:15.966Z,9.27
2022-11-23T04:00:43.615Z,11.05
2022-11-23T04:03:13.833Z,10.77
2022-11-23T04:06:04.891Z,7.72
2022-11-23T04:09:07.829Z,5.60
2022-11-23T04:11:52.421Z,9.55
2022-11-23T04:14:20.669Z,5.45
2022-11-23T04:16:49.098Z,2.97
2022-11-23T04:19:16.943Z,4.60
2022-11-23T04:21:44.568Z,5.65
2022-11-23T04:24:14.393Z,2.58
2022-11-23T04:26:45.922Z,3.72
2022-11-23T04:29:13.628Z,5.78
2022-11-23T04:31:45.670Z,3.45
2022-11-23T04:34:15.940Z,5.13
2022-11-23T04:36:43.813Z,3.75
2022-11-23T04:39:13.064Z,4.55
2022-11-23T04:42:05.725Z,10.32
2022-11-23T04:44:34.399Z,3.67
2022-11-23T04:47:05.126Z,3.17
2022-11-23T04:49:36.698Z,3.80
2022-11-23T04:52:06.674Z,6.13
2022-11-23T04:54:40.592Z,9.60
2022-11-23T04:57:09.864Z,4.95
2022-11-23T04:59:39.245Z,4.30
2022-11-23T05:02:07.287Z,4.20
2022-11-23T05:04:49.451Z,3.70
2022-11-23T05:07:18.542Z,5.53
2022-11-23T05:09:53.112Z,8.52
2022-11-23T05:12:22.331Z,5.90
2022-11-23T05:14:50.985Z,5.13
2022-11-23T05:17:26.392Z,18.73
2022-11-23T05:19:56.262Z,5.72
2022-11-23T05:22:24.927Z,3.88
2022-11-23T05:24:53.466Z,18.10
2022-11-23T05:27:24.338Z,11.15
2022-11-23T05:29:52.142Z,16.58
2022-11-23T05:32:19.798Z,20.50
2022-11-23T05:34:48.282Z,25.35
2022-11-23T05:37:17.803Z,15.77
2022-11-23T05:39:54.201Z,7.28
2022-11-23T05:42:22.698Z,13.57
2022-11-23T05:44:52.218Z,13.35
2022-11-23T05:47:25.156Z,6.93
2022-11-23T05:49:53.377Z,10.45
2022-11-23T05:52:26.268Z,8.55
2022-11-23T05:54:54.138Z,15.57
2022-11-23T05:57:22.529Z,8.95
2022-11-23T05:59:51.366Z,11.52
2022-11-23T06:02:23.345Z,9.52
2022-11-23T06:04:55.988Z,11.07
2022-11-23T06:07:34.701Z,10.95
2022-11-23T06:10:12.927Z,7.40
2022-11-23T06:12:45.903Z,3.40
2022-11-23T06:15:16.586Z,5.20
2022-11-23T06:17:46.142Z,4.80
2022-11-23T06:20:18.351Z,7.90
2022-11-23T06:22:54.441Z,4.30
2022-11-23T06:25:24.158Z,2.97
2022-11-23T06:28:14.412Z,2.35
2022-11-23T06:30:45.893Z,5.00
2022-11-23T06:33:15.599Z,3.13
2022-11-23T06:35:54.749Z,3.05
2022-11-23T06:38:24.295Z,4.93
2022-11-23T06:43:30.390Z,6.70
2022-11-23T06:45:58.467Z,14.45
2022-11-23T06:48:29.524Z,4.03
2022-11-23T06:51:01.175Z,4.55
2022-11-23T06:53:30.965Z,4.45
2022-11-23T06:56:03.787Z,16.58
2022-11-23T06:58:32.895Z,15.73
2022-11-23T07:01:04.641Z,9.23
2022-11-23T07:03:37.982Z,3.38
2022-11-23T07:06:16.507Z,7.47
2022-11-23T07:08:45.433Z,6.80
2022-11-23T07:11:24.184Z,5.05
2022-11-23T07:13:51.788Z,7.40
2022-11-23T07:16:19.856Z,6.18
2022-11-23T07:18:49.690Z,23.45
2022-11-23T07:21:18.086Z,5.10
2022-11-23T07:23:46.854Z,5.85
2022-11-23T07:26:14.529Z,4.78
2022-11-23T07:28:42.506Z,13.75
2022-11-23T07:31:11.830Z,24.92
2022-11-23T07:33:39.434Z,13.15
2022-11-23T07:36:07.452Z,6.22
2022-11-23T07:38:36.830Z,9.15
2022-11-23T07:41:04.753Z,5.13
2022-11-23T07:43:54.958Z,6.25
2022-11-23T07:46:22.677Z,6.43
2022-11-23T07:48:50.339Z,6.85
2022-11-23T07:51:20.140Z,5.55
2022-11-23T07:53:47.821Z,6.70
2022-11-23T07:56:15.574Z,6.07
2022-11-23T07:58:43.171Z,6.30
2022-11-23T08:01:17.983Z,6.65
2022-11-23T08:03:48.967Z,12.98
2022-11-23T08:06:17.174Z,5.40
2022-11-23T08:08:45.858Z,3.90
2022-11-23T08:11:17.266Z,3.95
2022-11-23T08:13:45.381Z,3.25
2022-11-23T08:16:13.123Z,4.32
2022-11-23T08:18:40.735Z,4.63
2022-11-23T08:21:08.310Z,14.55
2022-11-23T08:23:35.886Z,5.68
2022-11-23T08:26:10.487Z,9.57
2022-11-23T08:28:41.282Z,5.63
2022-11-23T08:31:11.463Z,3.97
2022-11-23T08:33:39.459Z,1.70
2022-11-23T08:36:08.445Z,2.70
2022-11-23T08:38:36.384Z,3.63
2022-11-23T08:41:05.614Z,8.60
2022-11-23T08:43:33.423Z,3.25
2022-11-23T08:46:05.628Z,2.42
2022-11-23T08:48:35.680Z,8.90
2022-11-23T08:51:03.252Z,13.23
2022-11-23T08:53:30.891Z,1.80
2022-11-23T08:56:01.942Z,1.73
2022-11-23T08:58:29.613Z,5.25
2022-11-23T09:00:57.192Z,2.83
2022-11-23T09:03:24.994Z,2.95
2022-11-23T09:05:54.341Z,1.55
2022-11-23T09:08:22.160Z,6.95
2022-11-23T09:10:49.932Z,5.03
2022-11-23T09:13:17.730Z,3.78
2022-11-23T09:15:45.489Z,3.22
2022-11-23T09:18:13.086Z,10.32
2022-11-23T09:20:40.620Z,8.55
2022-11-23T09:23:14.002Z,5.03
2022-11-23T09:25:44.362Z,9.82
2022-11-23T09:28:12.775Z,9.35
2022-11-23T09:30:42.212Z,17.15
2022-11-23T09:33:09.787Z,16.92
2022-11-23T09:35:43.502Z,9.38
2022-11-23T09:38:11.998Z,12.90
2022-11-23T09:40:41.320Z,9.80
2022-11-23T09:43:33.073Z,12.95
2022-11-23T09:46:11.763Z,8.95
2022-11-23T09:48:57.097Z,6.18
2022-11-23T09:51:24.694Z,11.57
2022-11-23T09:54:23.172Z,11.05
2022-11-23T09:57:00.081Z,19.42
2022-11-23T09:59:44.957Z,26.33
2022-11-23T10:02:26.039Z,19.00
2022-11-23T10:04:54.628Z,16.63
2022-11-23T10:07:24.935Z,16.23
2022-11-23T10:10:17.420Z,17.85
2022-11-23T10:13:06.822Z,11.77
2022-11-23T10:15:45.967Z,11.77
2022-11-23T10:19:06.177Z,13.52
2022-11-23T10:21:59.588Z,10.30
2022-11-23T10:24:33.968Z,8.85
2022-11-23T10:27:04.037Z,9.77
2022-11-23T10:29:36.140Z,12.13
2022-11-23T10:32:13.971Z,5.40
2022-11-23T10:34:51.552Z,11.23
2022-11-23T10:37:19.319Z,7.82
2022-11-23T10:39:46.948Z,3.67
2022-11-23T10:42:26.240Z,5.45
2022-11-23T10:44:56.508Z,7.28
2022-11-23T10:47:38.721Z,4.70
2022-11-23T10:50:33.578Z,4.13
2022-11-23T10:53:20.071Z,4.95
2022-11-23T10:55:58.694Z,3.67
2022-11-23T10:58:35.189Z,7.15
2022-11-23T11:01:12.107Z,3.60
2022-11-23T11:03:39.904Z,12.85
2022-11-23T11:06:09.622Z,10.10
2022-11-23T11:09:06.442Z,3.92
2022-11-23T11:11:39.860Z,3.50
2022-11-23T11:14:20.749Z,2.92
2022-11-23T11:16:49.893Z,3.15
2022-11-23T11:19:30.791Z,1.48
2022-11-23T11:22:00.319Z,2.50
2022-11-23T11:24:40.070Z,4.57
2022-11-23T11:27:15.994Z,7.15
2022-11-23T11:32:23.849Z,1.73
2022-11-23T11:35:14.897Z,1.50
2022-11-23T11:37:49.173Z,1.00
2022-11-23T11:40:32.944Z,1.85
2022-11-23T11:43:40.042Z,1.48
2022-11-23T11:46:30.622Z,1.10
2022-11-23T11:49:08.896Z,1.15
2022-11-23T11:51:42.919Z,1.52
2022-11-23T11:54:25.362Z,1.40
2022-11-23T11:56:57.887Z,5.22
2022-11-23T11:59:31.374Z,4.88
2022-11-23T12:02:23.596Z,2.13
2022-11-23T12:05:13.975Z,2.10
2022-11-23T12:08:10.826Z,5.25
2022-11-23T12:10:54.759Z,4.22
2022-11-23T12:13:29.547Z,5.45
2022-11-23T12:16:35.592Z,1.98
2022-11-23T12:19:15.308Z,2.53
2022-11-23T12:22:09.355Z,2.53
2022-11-23T12:25:01.041Z,2.80
2022-11-23T12:27:54.044Z,0.88
2022-11-23T12:30:44.926Z,4.88
2022-11-23T12:33:21.438Z,5.65
2022-11-23T12:36:04.656Z,6.10
2022-11-23T12:38:55.145Z,3.70
2022-11-23T12:41:49.048Z,4.88
2022-11-23T12:44:48.594Z,9.68
2022-11-23T12:47:35.225Z,7.15
2022-11-23T12:50:28.625Z,3.35
2022-11-23T12:53:08.052Z,9.00
2022-11-23T12:55:57.130Z,12.85
2022-11-23T12:58:29.866Z,3.42
2022-11-23T13:01:02.777Z,10.15
2022-11-23T13:03:39.308Z,6.75
2022-11-23T13:06:19.062Z,3.55
2022-11-23T13:09:16.998Z,1.20
2022-11-23T13:11:59.665Z,1.65
2022-11-23T13:14:38.797Z,11.48
2022-11-23T13:17:35.856Z,1.48
2022-11-23T13:20:38.006Z,1.45
2022-11-23T13:23:07.168Z,2.40
2022-11-23T13:25:34.871Z,2.08
2022-11-23T13:28:23.009Z,1.50
2022-11-23T13:31:26.054Z,3.53
2022-11-23T13:33:56.344Z,4.22
2022-11-23T13:36:56.275Z,2.17
2022-11-23T13:39:58.795Z,9.48
2022-11-23T13:42:27.818Z,12.65
2022-11-23T13:45:17.778Z,5.80
2022-11-23T13:48:19.379Z,8.02
2022-11-23T13:51:00.187Z,7.85
2022-11-23T13:53:35.180Z,7.43
2022-11-23T13:56:37.499Z,2.80
2022-11-23T13:59:29.309Z,4.40
2022-11-23T14:02:25.167Z,4.65
2022-11-23T14:04:54.124Z,13.27
2022-11-23T14:07:36.715Z,5.85
2022-11-23T14:10:25.769Z,6.28
2022-11-23T14:13:05.247Z,4.65
2022-11-23T14:15:50.691Z,1.17
2022-11-23T14:18:43.357Z,3.58
2022-11-23T14:21:16.389Z,1.48
2022-11-23T14:24:02.524Z,6.95
2022-11-23T14:26:46.133Z,5.60
2022-11-23T14:29:52.212Z,7.15
2022-11-23T14:32:24.705Z,6.45
2022-11-23T14:35:20.615Z,16.55
2022-11-23T14:38:16.280Z,12.07
2022-11-23T14:41:02.519Z,17.85
2022-11-23T14:43:30.521Z,13.35
2022-11-23T14:46:03.394Z,7.05
2022-11-23T14:48:33.182Z,8.65
2022-11-23T14:51:03.624Z,6.50
2022-11-23T14:53:44.066Z,30.05
2022-11-23T14:56:34.235Z,11.30
2022-11-23T14:59:23.737Z,6.28
2022-11-23T15:02:17.452Z,5.53
2022-11-23T15:05:19.372Z,9.23
2022-11-23T15:08:20.569Z,13.13
2022-11-23T15:10:57.372Z,8.18
2022-11-23T15:13:27.865Z,10.55
2022-11-23T15:15:57.608Z,11.35
2022-11-23T15:18:32.501Z,12.38
2022-11-23T15:21:06.304Z,16.27
2022-11-23T15:23:45.440Z,10.43
2022-11-23T15:26:52.949Z,17.10
2022-11-23T15:29:35.476Z,7.57
2022-11-23T15:32:30.528Z,10.05
2022-11-23T15:35:06.896Z,9.95
2022-11-23T15:37:49.219Z,8.20
2022-11-23T15:40:18.930Z,6.53
2022-11-23T15:42:48.781Z,5.47
2022-11-23T15:45:36.551Z,2.85
2022-11-23T15:48:42.972Z,6.55
2022-11-23T15:51:32.756Z,0.93
2022-11-23T15:54:01.274Z,0.90
2022-11-23T15:56:38.563Z,4.45
2022-11-23T15:59:20.149Z,0.57
2022-11-23T16:01:47.916Z,0.95
2022-11-23T16:04:40.799Z,2.03
2022-11-23T16:07:25.623Z,1.10
2022-11-23T16:10:17.275Z,1.00
2022-11-23T16:12:50.076Z,0.40
2022-11-23T16:15:46.404Z,2.15
2022-11-23T16:18:14.039Z,1.05
2022-11-23T16:20:56.621Z,3.40
2022-11-23T16:23:46.246Z,7.97
2022-11-23T16:26:14.489Z,3.95
2022-11-23T16:28:50.989Z,3.20
2022-11-23T16:31:51.755Z,0.68
2022-11-23T16:34:19.818Z,2.10
2022-11-23T16:36:47.568Z,3.10
2022-11-23T16:39:15.235Z,30.75
2022-11-23T16:41:42.940Z,1.15
2022-11-23T16:44:10.636Z,4.15
2022-11-23T16:46:43.283Z,5.53
2022-11-23T16:49:20.580Z,73.97
2022-11-23T16:51:57.084Z,29.23
2022-11-23T16:54:25.644Z,7.75
2022-11-23T16:56:53.958Z,4.75
2022-11-23T16:59:23.856Z,25.52
2022-11-23T17:01:56.950Z,4.45
2022-11-23T17:04:28.349Z,6.05
2022-11-23T17:06:56.013Z,6.38
2022-11-23T17:09:23.701Z,17.27
2022-11-23T17:11:51.390Z,24.60
2022-11-23T17:14:26.652Z,15.50
2022-11-23T17:17:00.386Z,10.82
2022-11-23T17:19:28.771Z,9.63
2022-11-23T17:21:56.435Z,14.63
2022-11-23T17:24:24.213Z,16.85
2022-11-23T17:26:55.611Z,13.68
2022-11-23T17:29:24.228Z,13.98
2022-11-23T17:31:52.213Z,10.95
2022-11-23T17:34:22.825Z,16.13
2022-11-23T17:36:51.636Z,14.30
2022-11-23T17:39:23.543Z,12.73
2022-11-23T17:41:51.959Z,14.40
2022-11-23T17:44:19.723Z,39.85
2022-11-23T17:46:47.829Z,10.90
2022-11-23T17:49:18.015Z,8.05
2022-11-23T17:51:47.192Z,11.90
2022-11-23T17:54:14.815Z,5.38
2022-11-23T17:56:43.017Z,10.40
2022-11-23T17:59:10.696Z,14.65
2022-11-23T18:01:38.519Z,68.80
2022-11-23T18:04:06.187Z,8.30
2022-11-23T18:06:33.921Z,37.35
2022-11-23T18:10:16.257Z,9.65
2022-11-23T18:12:52.262Z,9.38
2022-11-23T18:15:19.958Z,44.10
2022-11-23T18:17:47.649Z,21.42
2022-11-23T18:20:16.361Z,29.02
2022-11-23T18:22:43.995Z,8.13
2022-11-23T18:25:11.784Z,13.05
2022-11-23T18:27:39.461Z,25.90
2022-11-23T18:30:19.010Z,19.02
2022-11-23T18:32:47.023Z,139.80
2022-11-23T18:35:14.819Z,81.78
2022-11-23T18:37:42.584Z,195.98
2022-11-23T18:40:10.852Z,72.30
2022-11-23T18:42:38.585Z,61.58
2022-11-23T18:45:10.116Z,89.55
2022-11-23T18:47:45.045Z,107.82
2022-11-23T18:50:42.144Z,21.42
2022-11-23T18:53:59.062Z,11.80
2022-11-23T18:56:55.726Z,22.50
2022-11-23T19:00:04.587Z,75.28
2022-11-23T19:02:40.719Z,13.90
2022-11-23T19:05:11.739Z,77.95
2022-11-23T19:07:52.580Z,38.40
2022-11-23T19:10:20.690Z,22.13
2022-11-23T19:12:48.765Z,8.73
2022-11-23T19:15:16.476Z,41.60
2022-11-23T19:17:53.276Z,85.68
2022-11-23T19:20:23.707Z,91.88
2022-11-23T19:22:55.173Z,86.53
2022-11-23T19:25:30.214Z,23.83
2022-11-23T19:28:01.224Z,17.45
2022-11-23T19:30:29.267Z,36.72
2022-11-23T19:32:59.501Z,79.90
2022-11-23T19:38:32.115Z,38.22
2022-11-23T19:44:10.553Z,39.72
2022-11-23T19:46:39.109Z,17.40
2022-11-23T19:49:19.308Z,8.32
2022-11-23T19:51:53.790Z,13.32
2022-11-23T19:54:27.498Z,4.07
2022-11-23T19:56:55.126Z,4.80
2022-11-23T19:59:24.907Z,6.72
2022-11-23T20:01:52.875Z,9.52
2022-11-23T20:04:20.538Z,16.00
2022-11-23T20:06:48.183Z,4.38
2022-11-23T20:09:19.268Z,3.42
2022-11-23T20:11:50.981Z,5.90
2022-11-23T20:14:19.935Z,1.95
2022-11-23T20:16:47.996Z,2.47
2022-11-23T20:19:15.684Z,2.42
2022-11-23T20:21:43.498Z,3.00
2022-11-23T20:24:14.378Z,3.50
2022-11-23T20:26:43.201Z,6.35
2022-11-23T20:29:11.599Z,2.03
2022-11-23T20:31:39.510Z,3.78
2022-11-23T20:34:10.012Z,4.22
2022-11-23T20:36:42.504Z,2.03
2022-11-23T20:39:11.963Z,1.83
2022-11-23T20:41:39.926Z,4.70
2022-11-23T20:44:12.011Z,1.33
2022-11-23T20:49:30.953Z,2.78
2022-11-23T20:52:05.247Z,2.25
2022-11-23T20:54:58.842Z,1.30
2022-11-23T20:57:40.118Z,2.17
2022-11-23T21:00:18.956Z,2.90
2022-11-23T21:02:59.354Z,1.10
2022-11-23T21:05:48.130Z,1.55
2022-11-23T21:08:34.460Z,0.77
2022-11-23T21:11:52.392Z,0.52
2022-11-23T21:14:31.877Z,0.90
2022-11-23T21:17:04.351Z,0.75
2022-11-23T21:19:36.562Z,0.60
2022-11-23T21:22:24.412Z,0.75
2022-11-23T21:25:07.210Z,1.25
2022-11-23T21:27:37.543Z,0.95
2022-11-23T21:30:27.309Z,0.70
2022-11-23T21:32:55.345Z,5.22
2022-11-23T21:35:23.805Z,2.30
2022-11-23T21:37:54.552Z,1.33
2022-11-23T21:40:38.866Z,2.40
2022-11-23T21:44:03.146Z,3.05
2022-11-23T21:47:09.725Z,1.85
2022-11-23T21:49:50.621Z,2.83
2022-11-23T21:52:38.375Z,1.40
2022-11-23T21:55:06.656Z,3.47
2022-11-23T21:57:34.254Z,2.25
2022-11-23T22:00:02.237Z,1.73
2022-11-23T22:02:39.748Z,1.30
2022-11-23T22:05:07.635Z,5.55
2022-11-23T22:07:35.669Z,5.38
2022-11-23T22:10:05.915Z,0.70
2022-11-23T22:12:57.141Z,3.05
2022-11-23T22:18:13.142Z,0.95
2022-11-23T22:20:44.586Z,3.75
2022-11-23T22:23:31.304Z,1.65
2022-11-23T22:26:09.577Z,3.53
2022-11-23T22:28:47.083Z,3.85
2022-11-23T22:31:17.238Z,2.05
2022-11-23T22:33:45.255Z,5.15
2022-11-23T22:36:15.237Z,2.40
2022-11-23T22:38:43.889Z,3.22
2022-11-23T22:41:14.113Z,4.05
2022-11-23T22:43:42.461Z,1.75
2022-11-23T22:46:21.215Z,2.70
2022-11-23T22:48:50.756Z,4.65
2022-11-23T22:51:21.175Z,3.03
2022-11-23T22:53:53.093Z,2.38
2022-11-23T22:56:21.010Z,2.10
2022-11-23T22:58:49.269Z,5.25
2022-11-23T23:01:23.468Z,4.45
2022-11-23T23:04:01.327Z,4.28
2022-11-23T23:06:34.528Z,2.25
2022-11-23T23:09:03.786Z,2.67
2022-11-23T23:11:32.798Z,3.05
2022-11-23T23:14:00.969Z,6.47
2022-11-23T23:16:30.089Z,4.43
2022-11-23T23:18:59.283Z,3.75
2022-11-23T23:21:28.457Z,2.28
2022-11-23T23:24:00.250Z,6.63
2022-11-23T23:26:28.782Z,1.90
2022-11-23T23:28:58.983Z,2.85
2022-11-23T23:31:27.434Z,3.55
2022-11-23T23:33:55.234Z,2.45
2022-11-23T23:36:23.927Z,2.30
2022-11-23T23:38:52.009Z,4.05
2022-11-23T23:41:19.674Z,2.45
2022-11-23T23:43:48.271Z,2.80
2022-11-23T23:46:16.422Z,1.77
2022-11-23T23:48:44.717Z,1.83
2022-11-23T23:51:17.044Z,1.33
2022-11-23T23:53:45.753Z,1.83
2022-11-23T23:56:19.600Z,2.22
2022-11-23T23:58:47.637Z,1.50
